• Join FlightAware (Why Join?)
  • Login
  • US Flag 
07:33AM EDT


 

Airport Tracker/Info


-or-


 

Live Flight TrackerFlight Track Log ✈ FDX1 ✈ 11-Apr-2013 ✈ EGSS / STN - KMEM

Flight Track Log - Related Links

Times and Time Zones

All times are in EDT time to prevent confusion due to time zone crossing. See the FDX1 flight status page for this flight to view local times or setup timezone preferences in your user account.

Time Position Orientation Groundspeed Altitude Reporting Facility
EDT Latitude Longitude Course Direction KTS MPH feet Rate Location/Type
05:58PM 55.0761 -18.1310 294° West  Level Estimated
05:59PM 55.0948 -18.3464 279° West  Level Estimated
06:00PM 55.1132 -18.5620 279° West  Level Estimated
06:01PM 55.1312 -18.7778 278° West  Level Estimated
06:02PM 55.1488 -18.9938 278° West  Level Estimated
06:03PM 55.1660 -19.2100 278° West  Level Estimated
06:04PM 55.1829 -19.4264 278° West  Level Estimated
06:05PM 55.1993 -19.6429 278° West  Level Estimated
06:06PM 55.2154 -19.8596 277° West  Level Estimated
06:07PM 55.2311 -20.0765 277° West  Level Estimated
06:08PM 55.2464 -20.2936 277° West  Level Estimated
06:09PM 55.2613 -20.5108 277° West  Level Estimated
06:10PM 55.2759 -20.7282 277° West  Level Estimated
06:11PM 55.2900 -20.9457 277° West  Level Estimated
06:12PM 55.3038 -21.1634 276° West  Level Estimated
06:13PM 55.3172 -21.3813 276° West  Level Estimated
06:13PM 56.0000 -20.0000 284° West 438 504 32,000  Level ETMS Enhanced Traffic Management System
06:14PM 55.3301 -21.5993 276° West  Level Estimated
06:15PM 55.3427 -21.8174 276° West  Level Estimated
06:16PM 55.3549 -22.0357 276° West  Level Estimated
06:17PM 55.3668 -22.2541 276° West  Level Estimated
06:18PM 55.3782 -22.4726 275° West  Level Estimated
06:19PM 56.1755 -21.2718 283° West 438 504 32,000  Level FlightAware Transoceanic
06:20PM 56.2034 -21.4849 283° West 438 504 32,000  Level FlightAware Transoceanic
06:21PM 56.2310 -21.6983 283° West 438 504 32,000  Level FlightAware Transoceanic
06:22PM 56.2583 -21.9120 283° West 438 504 32,000  Level FlightAware Transoceanic
06:23PM 56.2851 -22.1260 283° West 438 504 32,000  Level FlightAware Transoceanic
06:24PM 56.3116 -22.3403 282° West 438 504 32,000  Level FlightAware Transoceanic
06:25PM 56.3378 -22.5549 282° West 438 504 32,000  Level FlightAware Transoceanic
06:26PM 56.3635 -22.7698 282° West 438 504 32,000  Level FlightAware Transoceanic
06:27PM 56.3889 -22.9849 282° West 438 504 32,000  Level FlightAware Transoceanic
06:28PM 56.4139 -23.2004 282° West 438 504 32,000  Level FlightAware Transoceanic
06:29PM 56.4385 -23.4161 282° West 438 504 32,000  Level FlightAware Transoceanic
06:30PM 56.4628 -23.6322 281° West 438 504 32,000  Level FlightAware Transoceanic
06:31PM 56.4867 -23.8485 281° West 438 504 32,000  Level FlightAware Transoceanic
06:32PM 56.5102 -24.0650 281° West 438 504 32,000  Level FlightAware Transoceanic
06:33PM 56.5333 -24.2819 281° West 438 504 32,000  Level FlightAware Transoceanic
06:34PM 56.5561 -24.4989 281° West 438 504 32,000  Level FlightAware Transoceanic
06:35PM 56.5784 -24.7163 280° West 438 504 32,000  Level FlightAware Transoceanic
06:36PM 56.6004 -24.9339 280° West 438 504 32,000  Level FlightAware Transoceanic
06:37PM 56.6221 -25.1518 280° West 438 504 32,000  Level FlightAware Transoceanic
06:38PM 56.6433 -25.3699 280° West 438 504 32,000  Level FlightAware Transoceanic
06:39PM 56.6642 -25.5882 280° West 438 504 32,000  Level FlightAware Transoceanic
06:40PM 56.6846 -25.8068 280° West 438 504 32,000  Level FlightAware Transoceanic
06:41PM 56.7047 -26.0256 279° West 438 504 32,000  Level FlightAware Transoceanic
06:42PM 56.7244 -26.2447 279° West 438 504 32,000  Level FlightAware Transoceanic
06:43PM 56.7437 -26.4640 279° West 438 504 32,000  Level FlightAware Transoceanic
06:44PM 56.7627 -26.6835 279° West 438 504 32,000  Level FlightAware Transoceanic
06:45PM 56.7812 -26.9032 279° West 438 504 32,000  Level FlightAware Transoceanic
06:46PM 56.7994 -27.1231 278° West 438 504 32,000  Level FlightAware Transoceanic
06:47PM 56.8171 -27.3433 278° West 438 504 32,000  Level FlightAware Transoceanic
06:48PM 56.8345 -27.5637 278° West 438 504 32,000  Level FlightAware Transoceanic
06:49PM 56.8515 -27.7842 278° West 438 504 32,000  Level FlightAware Transoceanic
06:50PM 56.8681 -28.0050 278° West 438 504 32,000  Level FlightAware Transoceanic
06:51PM 56.8843 -28.2259 278° West 438 504 32,000  Level FlightAware Transoceanic
06:52PM 56.9002 -28.4471 277° West 438 504 32,000  Level FlightAware Transoceanic
06:53PM 56.9156 -28.6684 277° West 438 504 32,000  Level FlightAware Transoceanic
06:54PM 56.9307 -28.8899 277° West 438 504 32,000  Level FlightAware Transoceanic
06:55PM 56.9453 -29.1116 277° West 438 504 32,000  Level FlightAware Transoceanic
06:56PM 56.9596 -29.3334 277° West 438 504 32,000  Level FlightAware Transoceanic
06:57PM 56.9734 -29.5555 276° West 438 504 32,000  Level FlightAware Transoceanic
06:58PM 56.9869 -29.7777 276° West 438 504 32,000  Level FlightAware Transoceanic
06:59PM 57.0003 -30.0053 276° West  Level FlightAware Approximate
07:00PM 57.0004 -30.0105 274° West  Level FlightAware Approximate
07:01PM 57.0093 -30.2390 274° West  Level FlightAware Approximate
07:02PM 57.0178 -30.4675 274° West  Level FlightAware Approximate
07:03PM 57.0259 -30.6961 274° West  Level FlightAware Approximate
07:04PM 57.0335 -30.9248 274° West  Level FlightAware Approximate
07:05PM 57.0407 -31.1536 273° West  Level FlightAware Approximate
07:06PM 57.0476 -31.3825 273° West  Level FlightAware Approximate
07:07PM 57.0540 -31.6115 273° West  Level FlightAware Approximate
07:08PM 57.0599 -31.8405 273° West  Level FlightAware Approximate
07:09PM 57.0655 -32.0697 273° West  Level FlightAware Approximate
07:10PM 57.0706 -32.2989 272° West  Level FlightAware Approximate
07:11PM 57.0754 -32.5281 272° West  Level FlightAware Approximate
07:12PM 57.0797 -32.7574 272° West  Level FlightAware Approximate
07:13PM 57.0836 -32.9868 272° West  Level FlightAware Approximate
07:14PM 57.0870 -33.2162 272° West  Level FlightAware Approximate
07:15PM 57.0901 -33.4456 271° West  Level FlightAware Approximate
07:16PM 57.0927 -33.6751 271° West  Level FlightAware Approximate
07:17PM 57.0949 -33.9046 271° West  Level FlightAware Approximate
07:18PM 57.0967 -34.1341 271° West  Level FlightAware Approximate
07:19PM 57.0981 -34.3637 271° West  Level FlightAware Approximate
07:20PM 57.0990 -34.5933 271° West  Level FlightAware Approximate
07:21PM 57.0996 -34.8228 270° West  Level FlightAware Approximate
07:22PM 57.0997 -35.0524 270° West  Level FlightAware Approximate
07:23PM 57.0994 -35.2820 270° West  Level FlightAware Approximate
07:24PM 57.0987 -35.5116 270° West  Level FlightAware Approximate
07:25PM 57.0975 -35.7411 270° West  Level FlightAware Approximate
07:26PM 57.0960 -35.9707 269° West  Level FlightAware Approximate
07:27PM 57.0940 -36.2002 269° West  Level FlightAware Approximate
07:28PM 57.0916 -36.4297 269° West  Level FlightAware Approximate
07:29PM 57.0887 -36.6591 269° West  Level FlightAware Approximate
07:30PM 57.0855 -36.8886 269° West  Level FlightAware Approximate
07:31PM 57.0818 -37.1180 268° West  Level FlightAware Approximate
07:32PM 57.0778 -37.3473 268° West  Level FlightAware Approximate
07:33PM 57.0733 -37.5766 268° West  Level FlightAware Approximate
07:34PM 57.0684 -37.8058 268° West  Level FlightAware Approximate
07:35PM 57.0630 -38.0350 268° West  Level FlightAware Approximate
07:36PM 57.0573 -38.2640 267° West  Level FlightAware Approximate
07:37PM 57.0511 -38.4931 267° West  Level FlightAware Approximate
07:38PM 57.0445 -38.7220 267° West  Level FlightAware Approximate
07:39PM 57.0375 -38.9509 267° West  Level FlightAware Approximate
07:40PM 57.0301 -39.1796 267° West  Level FlightAware Approximate
07:41PM 57.0222 -39.4083 266° West  Level FlightAware Approximate
07:42PM 57.0140 -39.6369 266° West  Level FlightAware Approximate
07:43PM 57.0053 -39.8653 266° West  Level FlightAware Approximate
07:44PM 57.0037 -40.0937 274° West  Level FlightAware Approximate
07:45PM 57.0125 -40.3222 274° West  Level FlightAware Approximate
07:46PM 57.0208 -40.5507 274° West  Level FlightAware Approximate
07:47PM 57.0287 -40.7794 274° West  Level FlightAware Approximate
07:48PM 57.0362 -41.0081 274° West  Level FlightAware Approximate
07:49PM 57.0433 -41.2370 273° West  Level FlightAware Approximate
07:50PM 57.0499 -41.4659 273° West  Level FlightAware Approximate
07:51PM 57.0562 -41.6949 273° West  Level FlightAware Approximate
07:52PM 57.0620 -41.9240 273° West  Level FlightAware Approximate
07:53PM 57.0674 -42.1531 273° West  Level FlightAware Approximate
07:54PM 57.0724 -42.3824 272° West  Level FlightAware Approximate
07:55PM 57.0770 -42.6116 272° West  Level FlightAware Approximate
07:56PM 57.0811 -42.8410 272° West  Level FlightAware Approximate
07:57PM 57.0849 -43.0703 272° West  Level FlightAware Approximate
07:58PM 57.0882 -43.2997 272° West  Level FlightAware Approximate
07:59PM 57.0911 -43.5292 271° West  Level FlightAware Approximate
08:00PM 57.0936 -43.7587 271° West  Level FlightAware Approximate
08:01PM 57.0956 -43.9882 271° West  Level FlightAware Approximate
08:02PM 57.0973 -44.2178 271° West  Level FlightAware Approximate
08:03PM 57.0985 -44.4473 271° West  Level FlightAware Approximate
08:04PM 57.0993 -44.6769 270° West  Level FlightAware Approximate
08:05PM 57.0997 -44.9065 270° West  Level FlightAware Approximate
08:06PM 57.0996 -45.1360 270° West  Level FlightAware Approximate
08:07PM 57.0992 -45.3656 270° West  Level FlightAware Approximate
08:08PM 57.0983 -45.5952 270° West  Level FlightAware Approximate
08:09PM 57.0970 -45.8247 270° West  Level FlightAware Approximate
08:10PM 57.0953 -46.0543 269° West  Level FlightAware Approximate
08:11PM 57.0931 -46.2838 269° West  Level FlightAware Approximate
08:12PM 57.0906 -46.5133 269° West  Level FlightAware Approximate
08:13PM 57.0876 -46.7427 269° West  Level FlightAware Approximate
08:14PM 57.0842 -46.9721 269° West  Level FlightAware Approximate
08:15PM 57.0804 -47.2015 268° West  Level FlightAware Approximate
08:16PM 57.0762 -47.4308 268° West  Level FlightAware Approximate
08:17PM 57.0715 -47.6601 268° West  Level FlightAware Approximate
08:18PM 57.0665 -47.8893 268° West  Level FlightAware Approximate
08:19PM 57.0610 -48.1184 268° West  Level FlightAware Approximate
08:20PM 57.0551 -48.3475 267° West  Level FlightAware Approximate
08:21PM 57.0487 -48.5765 267° West  Level FlightAware Approximate
08:22PM 57.0420 -48.8054 267° West  Level FlightAware Approximate
08:23PM 57.0348 -49.0342 267° West  Level FlightAware Approximate
08:24PM 57.0273 -49.2630 267° West  Level FlightAware Approximate
08:25PM 57.0193 -49.4916 266° West  Level FlightAware Approximate
08:26PM 57.0109 -49.7201 266° West  Level FlightAware Approximate
08:27PM 57.0020 -49.9486 266° West  Level FlightAware Approximate
08:28PM 56.9700 -50.1685 252° West  Level FlightAware Approximate
08:29PM 56.9308 -50.3856 252° West  Level FlightAware Approximate
08:30PM 56.8913 -50.6023 252° West  Level FlightAware Approximate
08:31PM 56.8515 -50.8185 251° West  Level FlightAware Approximate
08:32PM 56.8112 -51.0342 251° West  Level FlightAware Approximate
08:33PM 56.7706 -51.2495 251° West  Level FlightAware Approximate
08:34PM 56.7296 -51.4643 251° West  Level FlightAware Approximate
08:35PM 56.6883 -51.6786 251° West  Level FlightAware Approximate
08:36PM 56.6465 -51.8925 251° West  Level FlightAware Approximate
08:37PM 56.6045 -52.1059 250° West  Level FlightAware Approximate
08:38PM 56.5620 -52.3188 250° West  Level FlightAware Approximate
08:39PM 56.5192 -52.5312 250° West  Level FlightAware Approximate
08:40PM 56.4760 -52.7432 250° West  Level FlightAware Approximate
08:41PM 56.4325 -52.9547 250° West  Level FlightAware Approximate
08:42PM 56.3886 -53.1656 249° West  Level FlightAware Approximate
08:43PM 56.3443 -53.3761 249° West  Level FlightAware Approximate
08:44PM 56.2997 -53.5861 249° West  Level FlightAware Approximate
08:45PM 56.2548 -53.7956 249° West  Level FlightAware Approximate
08:46PM 56.2094 -54.0047 249° West  Level FlightAware Approximate
08:47PM 56.1638 -54.2132 249° West  Level FlightAware Approximate
08:48PM 56.1177 -54.4212 248° West  Level FlightAware Approximate
08:49PM 56.0714 -54.6287 248° West  Level FlightAware Approximate
08:50PM 56.0247 -54.8358 248° West  Level FlightAware Approximate
08:50PM 55.8833 -55.5833 247° West 600 690 32,000  Level Moncton Center
08:51PM 55.9778 -55.0416 248° West  Level FlightAware Approximate
08:51PM 55.8167 -55.8333 245° Southwest 500 575 32,000  Level Moncton Center
08:52PM 55.9306 -55.2469 248° West  Level FlightAware Approximate
08:52PM 55.7500 -56.0167 237° Southwest 500 575 32,000  Level Moncton Center
08:53PM 55.8830 -55.4517 248° West  Level FlightAware Approximate
08:53PM 55.7000 -56.2500 249° West 500 575 32,000  Level Moncton Center
08:54PM 55.8351 -55.6559 247° West  Level FlightAware Approximate
08:54PM 55.6500 -56.5000 251° West 500 575 32,000  Level Moncton Center
08:55PM 55.7868 -55.8597 247° West  Level FlightAware Approximate
08:55PM 55.6000 -56.7167 248° West 500 575 32,000  Level Moncton Center
08:56PM 55.5500 -56.9333 248° West 500 575 32,000 540 Level Moncton Center
08:57PM 55.4667 -57.1167 231° Southwest 490 564 33,100 960 Climbing Moncton Center
08:58PM 55.3667 -57.3167 229° Southwest 490 564 34,000 420 Climbing Moncton Center
08:59PM 55.2500 -57.4500 213° Southwest 500 575 34,000  Level Moncton Center
09:00PM 55.1667 -57.6167 229° Southwest 500 575 34,000  Level Moncton Center
09:01PM 55.0500 -57.7833 219° Southwest 500 575 34,000  Level Moncton Center
09:02PM 54.9500 -57.9333 221° Southwest 500 575 34,000  Level Moncton Center
09:03PM 54.8333 -58.1000 219° Southwest 500 575 34,000  Level Moncton Center
09:04PM 54.7500 -58.2667 229° Southwest 500 575 34,000  Level Moncton Center
09:05PM 54.6333 -58.4167 217° Southwest 500 575 34,000  Level Moncton Center
09:06PM 54.5167 -58.5833 220° Southwest 500 575 34,000  Level Moncton Center
09:07PM 54.4333 -58.7000 219° Southwest 500 575 34,000  Level Moncton Center
09:08PM 54.3167 -58.9000 225° Southwest 500 575 34,000  Level Moncton Center
09:09PM 54.2167 -59.0167 214° Southwest 500 575 34,000  Level Moncton Center
09:10PM 54.1000 -59.2167 225° Southwest 500 575 34,000  Level Moncton Center
09:11PM 54.0000 -59.3333 214° Southwest 500 575 34,000  Level Moncton Center
09:12PM 53.9000 -59.5167 227° Southwest 500 575 34,000  Level Moncton Center
09:13PM 53.7833 -59.6500 214° Southwest 500 575 34,000  Level Moncton Center
09:14PM 53.6833 -59.8000 222° Southwest 500 575 34,000  Level Moncton Center
09:15PM 53.5833 -59.9500 222° Southwest 500 575 34,000  Level Moncton Center
09:16PM 53.4667 -60.1000 217° Southwest 500 575 34,000  Level Gander Center
09:16PM 53.4667 -60.1000 217° Southwest 510 587 34,000  Level Moncton Center
09:17PM 53.3667 -60.2500 222° Southwest 500 575 34,000  Level Gander Center
09:18PM 53.2500 -60.4000 218° Southwest 500 575 34,000  Level Moncton Center
09:19PM 53.1500 -60.5500 222° Southwest 500 575 34,000  Level Moncton Center
09:20PM 53.0333 -60.7000 218° Southwest 490 564 34,000  Level Moncton Center
09:21PM 52.9333 -60.8500 222° Southwest 490 564 34,000  Level Moncton Center
09:22PM 52.8167 -61.0000 218° Southwest 490 564 34,000  Level Moncton Center
09:23PM 52.7333 -61.1333 224° Southwest 490 564 34,000  Level Moncton Center
09:24PM 52.6167 -61.2500 211° Southwest 500 575 34,000  Level Moncton Center
09:25PM 52.5000 -61.4000 218° Southwest 500 575 34,000  Level Moncton Center
09:26PM 52.4000 -61.5500 222° Southwest 500 575 34,000  Level Moncton Center
09:27PM 52.2833 -61.6833 215° Southwest 490 564 34,000  Level Moncton Center
09:28PM 52.1833 -61.8333 223° Southwest 490 564 34,000  Level Moncton Center
09:29PM 52.0833 -61.9667 219° Southwest 490 564 34,000  Level Moncton Center
09:30PM 51.9667 -62.1167 218° Southwest 490 564 34,000  Level Moncton Center
09:31PM 51.8500 -62.2500 215° Southwest 490 564 34,000  Level Moncton Center
09:32PM 51.7500 -62.3667 216° Southwest 490 564 34,000  Level Moncton Center
09:33PM 51.6500 -62.5167 223° Southwest 490 564 34,000  Level Moncton Center
09:34PM 51.5333 -62.6500 215° Southwest 490 564 34,000  Level Moncton Center
09:35PM 51.4333 -62.7833 220° Southwest 490 564 34,000  Level Moncton Center
09:36PM 51.3167 -62.9167 216° Southwest 480 552 34,000  Level Moncton Center
09:37PM 51.2167 -63.0333 216° Southwest 470 541 34,000  Level Moncton Center
09:38PM 51.1000 -63.1667 216° Southwest 490 564 34,000  Level Moncton Center
09:39PM 51.0167 -63.3000 225° Southwest 480 552 34,000  Level Moncton Center
09:40PM 50.9000 -63.4500 219° Southwest 480 552 34,000  Level Moncton Center
09:41PM 50.8000 -63.5500 212° Southwest 470 541 34,000  Level Moncton Center
09:42PM 50.6833 -63.6833 216° Southwest 480 552 34,000  Level Moncton Center
09:43PM 50.5833 -63.8167 220° Southwest 480 552 34,000  Level Moncton Center
09:44PM 50.4833 -63.9167 212° Southwest 480 552 34,000  Level Moncton Center
09:45PM 50.3667 -64.0500 216° Southwest 480 552 34,000  Level Moncton Center
09:46PM 50.2667 -64.1833 220° Southwest 480 552 34,000  Level Moncton Center
09:47PM 50.1667 -64.3167 221° Southwest 470 541 34,000 -60 Level Moncton Center
09:48PM 50.0667 -64.4167 213° Southwest 460 529 33,900  Descending Moncton Center
09:49PM 49.9667 -64.5333 217° Southwest 460 529 34,000  Climbing Moncton Center
09:50PM 49.8500 -64.6500 213° Southwest 470 541 34,000  Level Moncton Center
09:51PM 49.7333 -64.7833 216° Southwest 460 529 34,100  Climbing Moncton Center
09:52PM 49.6333 -64.8833 213° Southwest 460 529 34,000 -60 Descending Moncton Center
09:53PM 49.5167 -65.0167 217° Southwest 470 541 34,000  Level Moncton Center
09:54PM 49.4167 -65.1500 221° Southwest 460 529 34,000 -60 Level Moncton Center
09:55PM 49.3167 -65.2500 213° Southwest 460 529 33,900 -60 Descending Moncton Center
09:56PM 49.2167 -65.3667 217° Southwest 450 518 33,900  Level Moncton Center
09:57PM 49.1167 -65.4667 213° Southwest 450 518 34,000  Climbing Moncton Center
09:58PM 49.0167 -65.5667 213° Southwest 450 518 34,000  Level Moncton Center
09:59PM 48.9167 -65.7000 221° Southwest 460 529 34,000  Level Moncton Center
10:00PM 48.8167 -65.8000 213° Southwest 450 518 34,000  Level Moncton Center
10:01PM 48.7167 -65.9167 218° Southwest 440 506 34,000 -60 Level Moncton Center
10:02PM 48.6167 -66.0167 213° Southwest 430 495 33,900  Descending Moncton Center
10:03PM 48.5000 -66.1167 210° Southwest 430 495 34,000  Climbing Moncton Center
10:04PM 48.4000 -66.2333 218° Southwest 440 506 34,000  Level Moncton Center
10:05PM 48.3000 -66.3333 214° Southwest 440 506 34,000  Level Moncton Center
10:06PM 48.2000 -66.4333 214° Southwest 440 506 34,000  Level Moncton Center
10:07PM 48.1000 -66.5500 218° Southwest 450 518 34,000  Level Moncton Center
10:08PM 48.0167 -66.6500 219° Southwest 430 495 34,000  Level Moncton Center
10:09PM 47.9167 -66.7500 214° Southwest 410 472 34,000  Level Moncton Center
10:10PM 47.8167 -66.8333 209° Southwest 410 472 34,000  Level Moncton Center
10:11PM 47.7167 -66.9333 214° Southwest 410 472 34,000  Level Moncton Center
10:12PM 47.6333 -67.0333 219° Southwest 420 483 34,000  Level Moncton Center
10:13PM 47.5333 -67.1167 209° Southwest 420 483 34,000  Level Moncton Center
10:14PM 47.4500 -67.2167 219° Southwest 410 472 34,000  Level Moncton Center
10:15PM 47.3500 -67.3167 214° Southwest 400 460 34,000  Level Moncton Center
10:16PM 47.2667 -67.4333 224° Southwest 390 449 34,000  Level Moncton Center
10:22PM 46.8020 -68.0580 224° Southwest 388 447 34,000  Level FlightAware
10:22PM 46.7600 -68.1160 223° Southwest 380 437 34,000 60 Level FlightAware
10:23PM 46.7080 -68.1990 228° Southwest 381 438 34,100  Climbing FlightAware
10:24PM 46.6600 -68.2750 227° Southwest 385 443 34,000  Descending FlightAware
10:25PM 46.6020 -68.3660 227° Southwest 387 445 34,100  Climbing FlightAware
10:25PM 46.5410 -68.4590 226° Southwest 388 447 34,000 -120 Descending FlightAware
10:26PM 46.4920 -68.5360 227° Southwest 390 449 34,000  Level FlightAware
10:27PM 46.4380 -68.6210 227° Southwest 389 448 34,000  Level FlightAware
10:27PM 46.3890 -68.6960 227° Southwest 387 445 34,000  Level FlightAware
10:28PM 46.3400 -68.7720 227° Southwest 387 445 34,000 -120 Level FlightAware
10:29PM 46.2900 -68.8470 226° Southwest 388 447 33,900  Descending FlightAware
10:30PM 46.2350 -68.9320 227° Southwest 389 448 34,000 60 Climbing FlightAware
10:30PM 46.1860 -69.0070 227° Southwest 391 450 34,000  Level FlightAware
10:31PM 46.1300 -69.0930 227° Southwest 394 453 34,000  Level FlightAware
10:32PM 46.0790 -69.1710 227° Southwest 394 453 34,000  Level FlightAware
10:32PM 46.0240 -69.2540 226° Southwest 396 456 34,000  Level FlightAware
10:33PM 45.9660 -69.3400 226° Southwest 398 458 34,000  Level FlightAware
10:34PM 45.9160 -69.4160 227° Southwest 398 458 34,000  Level FlightAware
10:34PM 45.8650 -69.4930 226° Southwest 399 459 34,000  Level FlightAware
10:35PM 45.8140 -69.5690 226° Southwest 399 459 34,000  Level FlightAware
10:36PM 45.7560 -69.6550 226° Southwest 401 461 34,000  Level FlightAware
10:37PM 45.6980 -69.7410 226° Southwest 402 463 34,000  Level FlightAware
10:37PM 45.6470 -69.8170 226° Southwest 403 464 34,000  Level FlightAware
10:38PM 45.5960 -69.8930 226° Southwest 404 465 34,000  Level FlightAware
10:39PM 45.5380 -69.9790 226° Southwest 403 464 34,000  Level FlightAware
10:39PM 45.4860 -70.0560 226° Southwest 405 466 34,000  Level FlightAware
10:40PM 45.4330 -70.1320 225° Southwest 405 466 34,000  Level FlightAware
10:41PM 45.3740 -70.2180 226° Southwest 406 467 34,000  Level FlightAware
10:41PM 45.3230 -70.2940 226° Southwest 404 465 34,000  Level FlightAware
10:42PM 45.2640 -70.3790 225° Southwest 405 466 34,000  Level FlightAware
10:43PM 45.2120 -70.4550 226° Southwest 404 465 34,000  Level FlightAware
10:44PM 45.1590 -70.5300 225° Southwest 405 466 34,000  Level FlightAware
10:44PM 45.1000 -70.6150 225° Southwest 405 466 34,000  Level FlightAware
10:45PM 45.0480 -70.6900 226° Southwest 405 466 34,000  Level FlightAware
10:46PM 44.9910 -70.7710 225° Southwest 406 467 34,000  Level FlightAware
10:46PM 44.9490 -70.8320 226° Southwest 408 470 34,000  Level FlightAware
10:47PM 44.8800 -70.9300 225° Southwest 408 470 34,000  Level FlightAware
10:48PM 44.8230 -71.0110 225° Southwest 408 470 34,000  Level FlightAware
10:48PM 44.7690 -71.0880 225° Southwest 410 472 34,000  Level FlightAware
10:49PM 44.7100 -71.1700 225° Southwest 411 473 34,000  Level FlightAware
10:50PM 44.6570 -71.2460 226° Southwest 413 475 34,000 60 Level FlightAware
10:51PM 44.6030 -71.3220 225° Southwest 413 475 34,100 60 Climbing FlightAware
10:51PM 44.5400 -71.4090 225° Southwest 412 474 34,100 -120 Level FlightAware
10:52PM 44.4860 -71.4840 225° Southwest 411 473 34,000 -120 Descending FlightAware
10:53PM 44.4260 -71.5670 225° Southwest 410 472 34,000  Level FlightAware
10:53PM 44.3720 -71.6430 225° Southwest 410 472 34,000  Level FlightAware
10:54PM 44.3200 -71.7140 224° Southwest 410 472 34,000  Level FlightAware
10:55PM 44.2550 -71.8030 224° Southwest 409 471 34,000  Level FlightAware
10:55PM 44.2030 -71.8760 225° Southwest 410 472 34,000  Level FlightAware
10:56PM 44.1500 -71.9480 224° Southwest 409 471 34,000  Level FlightAware
10:57PM 44.0880 -72.0330 225° Southwest 410 472 34,000  Level FlightAware
10:58PM 44.0350 -72.1050 224° Southwest 411 473 34,000  Level FlightAware
10:58PM 43.9720 -72.1900 224° Southwest 412 474 34,000  Level FlightAware
10:59PM 43.9200 -72.2610 225° Southwest 413 475 34,000  Level FlightAware
11:00PM 43.8600 -72.3420 224° Southwest 414 476 34,000  Level FlightAware
11:00PM 43.8020 -72.4200 224° Southwest 415 478 34,000  Level FlightAware
11:01PM 43.7470 -72.4940 224° Southwest 415 478 34,000  Level FlightAware
11:02PM 43.6830 -72.5790 224° Southwest 416 479 34,000  Level FlightAware
11:02PM 43.6270 -72.6530 224° Southwest 418 481 34,000  Level FlightAware
11:03PM 43.5670 -72.7350 225° Southwest 418 481 34,000  Level FlightAware
11:04PM 43.5110 -72.8090 224° Southwest 420 483 34,000 60 Level FlightAware
11:05PM 43.4530 -72.8850 224° Southwest 420 483 34,100  Climbing FlightAware
11:05PM 43.3890 -72.9690 224° Southwest 422 486 34,000 -120 Descending FlightAware
11:06PM 43.3330 -73.0430 224° Southwest 422 486 34,000  Level FlightAware
11:07PM 43.2830 -73.1100 224° Southwest 422 486 34,000  Level FlightAware
11:07PM 43.2210 -73.1910 224° Southwest 423 487 34,000  Level FlightAware
11:08PM 43.1560 -73.2740 223° Southwest 423 487 34,000  Level FlightAware
11:09PM 43.1010 -73.3470 224° Southwest 425 489 34,000  Level FlightAware
11:09PM 43.0620 -73.3970 223° Southwest 425 489 34,000  Level FlightAware
11:10PM 43.0090 -73.4650 223° Southwest 426 490 34,000  Level FlightAware
11:11PM 42.9260 -73.5740 224° Southwest 425 489 34,000  Level FlightAware
11:12PM 42.8570 -73.6620 223° Southwest 423 487 34,000  Level FlightAware
11:12PM 42.7940 -73.7430 223° Southwest 424 488 34,000  Level FlightAware
11:13PM 42.7400 -73.8220 227° Southwest 416 479 34,000  Level FlightAware
11:14PM 42.6940 -73.9250 239° Southwest 414 476 34,000  Level FlightAware
11:14PM 42.6560 -74.0090 238° Southwest 413 475 34,000  Level FlightAware
11:15PM 42.6170 -74.0980 239° Southwest 412 474 34,000  Level FlightAware
11:16PM 42.5710 -74.2020 239° Southwest 413 475 34,000  Level FlightAware
11:16PM 42.5310 -74.2900 238° Southwest 414 476 34,000  Level FlightAware
11:17PM 42.4850 -74.3910 238° Southwest 415 478 34,000  Level FlightAware
11:18PM 42.4310 -74.5120 239° Southwest 416 479 34,000  Level FlightAware
11:19PM 42.3990 -74.5810 238° Southwest 416 479 34,000  Level FlightAware
11:20PM 42.3480 -74.6960 239° Southwest 420 483 34,000  Level FlightAware
11:20PM 42.3160 -74.7660 238° Southwest 420 483 34,000  Level FlightAware
11:21PM 42.2810 -74.8410 238° Southwest 420 483 34,000  Level FlightAware
11:22PM 42.2370 -74.9360 238° Southwest 420 483 34,000  Level FlightAware
11:22PM 42.2020 -75.0120 238° Southwest 420 483 34,000  Level FlightAware
11:23PM 42.1370 -75.1550 239° Southwest 424 488 34,000  Level FlightAware
11:24PM 42.0890 -75.2600 238° Southwest 423 487 34,000  Level FlightAware
11:24PM 42.0560 -75.3340 239° Southwest 421 484 34,000  Level FlightAware
11:25PM 42.0160 -75.4320 241° Southwest 420 483 34,000  Level FlightAware
11:26PM 41.9840 -75.5100 241° Southwest 420 483 34,000 -60 Level FlightAware
11:27PM 41.9100 -75.6880 241° Southwest 418 481 33,900  Descending FlightAware
11:28PM 41.8680 -75.7890 241° Southwest 419 482 34,000 60 Climbing FlightAware
11:28PM 41.8290 -75.8820 241° Southwest 419 482 34,000  Level FlightAware
11:29PM 41.8073 -75.9349 241° Southwest 421 484 34,000  Level FlightAware ADS-B
11:29PM 41.7766 -76.0078 241° Southwest 423 487 34,000 60 Level FlightAware ADS-B
11:30PM 41.7436 -76.0856 240° Southwest 424 488 34,100  Climbing FlightAware ADS-B
11:30PM 41.7118 -76.1609 241° Southwest 426 490 34,000 -120 Descending FlightAware ADS-B
11:31PM 41.6811 -76.2345 241° Southwest 427 491 34,000  Level FlightAware ADS-B
11:31PM 41.6469 -76.3150 240° Southwest 429 494 34,000  Level FlightAware ADS-B
11:32PM 41.6159 -76.3886 241° Southwest 429 494 34,000  Level FlightAware ADS-B
11:32PM 41.5842 -76.4625 240° Southwest 430 495 34,000  Level FlightAware ADS-B
11:33PM 41.5534 -76.5364 241° Southwest 430 495 34,000  Level FlightAware ADS-B
11:34PM 41.5232 -76.6055 240° Southwest 431 496 34,000  Level FlightAware ADS-B
11:34PM 41.4928 -76.6772 241° Southwest 431 496 34,000  Level FlightAware ADS-B
11:35PM 41.4624 -76.7484 240° Southwest 431 496 34,000  Level FlightAware ADS-B
11:35PM 41.4245 -76.8361 240° Southwest 431 496 34,000  Level FlightAware ADS-B
11:36PM 41.3829 -76.9322 240° Southwest 430 495 34,000  Level FlightAware ADS-B
11:36PM 41.3512 -77.0057 240° Southwest 431 496 34,000  Level FlightAware ADS-B
11:37PM 41.3184 -77.0814 240° Southwest 430 495 34,000  Level FlightAware ADS-B
11:38PM 41.2853 -77.1570 240° Southwest 431 496 34,000  Level FlightAware ADS-B
11:38PM 41.2532 -77.2302 240° Southwest 431 496 34,000  Level FlightAware ADS-B
11:39PM 41.2175 -77.3127 240° Southwest 431 496 34,000  Level FlightAware ADS-B
11:39PM 41.1700 -77.4200 240° Southwest 428 493 34,000  Level FlightAware
11:40PM 41.1334 -77.5027 240° Southwest 433 498 34,000 60 Level FlightAware ADS-B
11:41PM 41.1011 -77.5778 240° Southwest 431 496 34,100  Climbing FlightAware ADS-B
11:41PM 41.0651 -77.6575 239° Southwest 430 495 34,000 -120 Descending FlightAware ADS-B
11:42PM 41.0300 -77.7370 240° Southwest 428 493 34,000  Level FlightAware
11:43PM 40.9830 -77.8430 240° Southwest 428 493 34,000  Level FlightAware
11:43PM 40.9440 -77.9310 240° Southwest 428 493 34,000  Level FlightAware
11:44PM 40.8990 -78.0180 236° Southwest 430 495 34,000  Level FlightAware
11:45PM 40.8410 -78.1100 230° Southwest 431 496 34,000  Level FlightAware
11:45PM 40.7930 -78.1850 230° Southwest 435 501 34,000  Level FlightAware
11:46PM 40.7330 -78.2790 230° Southwest 441 507 34,000 60 Level FlightAware
11:47PM 40.6770 -78.3650 229° Southwest 442 509 34,100  Climbing FlightAware
11:47PM 40.6270 -78.4430 230° Southwest 442 509 34,000 -120 Descending FlightAware
11:48PM 40.5650 -78.5370 229° Southwest 441 507 34,000  Level FlightAware
11:49PM 40.5270 -78.6250 240° Southwest 438 504 34,000  Level FlightAware
11:50PM 40.4860 -78.7260 242° Southwest 437 503 34,000  Level FlightAware
11:50PM 40.4450 -78.8270 242° Southwest 438 504 34,000  Level FlightAware
11:51PM 40.4020 -78.9320 242° Southwest 438 504 34,000  Level FlightAware
11:52PM 40.3600 -79.0350 242° Southwest 434 499 34,000  Level FlightAware
11:52PM 40.3200 -79.1320 242° Southwest 428 493 34,000  Level FlightAware
11:53PM 40.2880 -79.2110 242° Southwest 426 490 34,000  Level FlightAware
11:54PM 40.2400 -79.3270 242° Southwest 425 489 34,000  Level FlightAware
11:54PM 40.2080 -79.4040 241° Southwest 426 490 34,000  Level FlightAware
11:55PM 40.1600 -79.5170 241° Southwest 430 495 34,000  Level FlightAware
11:56PM 40.1240 -79.6040 242° Southwest 428 493 34,000  Level FlightAware
11:57PM 40.0840 -79.6990 241° Southwest 428 493 34,000  Level FlightAware
11:57PM 40.0450 -79.7940 242° Southwest 422 486 34,000  Level FlightAware
11:58PM 40.0030 -79.8920 241° Southwest 422 486 34,000  Level FlightAware
11:59PM 39.9610 -79.9910 241° Southwest 423 487 34,000  Level FlightAware
12:00AM 39.9110 -80.1090 241° Southwest 422 486 34,000  Level FlightAware
12:01AM 39.8620 -80.2240 241° Southwest 423 487 34,000  Level FlightAware
12:01AM 39.8380 -80.2810 241° Southwest 423 487 34,000  Level FlightAware
12:02AM 39.7750 -80.4270 241° Southwest 422 486 34,000  Level FlightAware
12:03AM 39.7280 -80.5380 241° Southwest 427 491 34,000  Level FlightAware
12:03AM 39.6900 -80.6250 240° Southwest 433 498 34,000 60 Level FlightAware
12:04AM 39.6500 -80.7180 241° Southwest 433 498 34,100  Climbing FlightAware
12:05AM 39.6070 -80.8180 241° Southwest 432 497 34,000  Descending FlightAware
12:06AM 39.5660 -80.9100 240° Southwest 428 493 34,100  Climbing FlightAware
12:06AM 39.5220 -81.0100 240° Southwest 423 487 34,000 -120 Descending FlightAware
12:07AM 39.4850 -81.0960 241° Southwest 421 484 34,000  Level FlightAware
12:08AM 39.4410 -81.1970 241° Southwest 421 484 34,000  Level FlightAware
12:08AM 39.4050 -81.2780 240° Southwest 424 488 34,000 60 Level FlightAware
12:09AM 39.3630 -81.3730 240° Southwest 423 487 34,100  Climbing FlightAware
12:10AM 39.3190 -81.4720 240° Southwest 423 487 34,000  Descending FlightAware
12:10AM 39.2860 -81.5460 240° Southwest 420 483 34,100  Climbing FlightAware
12:11AM 39.2370 -81.6550 240° Southwest 421 484 34,000 -60 Descending FlightAware
12:12AM 39.1800 -81.7830 240° Southwest 422 486 34,000  Level FlightAware
12:13AM 39.1490 -81.8510 240° Southwest 423 487 34,000  Level FlightAware
12:13AM 39.1050 -81.9500 240° Southwest 424 488 34,000 60 Level FlightAware
12:14AM 39.0540 -82.0630 240° Southwest 422 486 34,100 60 Climbing FlightAware
12:15AM 39.0170 -82.1460 240° Southwest 420 483 34,100 -120 Level FlightAware
12:16AM 38.9730 -82.2420 240° Southwest 417 480 34,000 -120 Descending FlightAware
12:16AM 38.9380 -82.3190 240° Southwest 416 479 34,000  Level FlightAware
12:17AM 38.8930 -82.4150 239° Southwest 418 481 34,000  Level FlightAware
12:18AM 38.8490 -82.5110 240° Southwest 420 483 34,000  Level FlightAware
12:19AM 38.7990 -82.6200 240° Southwest 421 484 34,000  Level FlightAware
12:19AM 38.7640 -82.6930 238° Southwest 421 484 34,000  Level FlightAware
12:20AM 38.7300 -82.7660 239° Southwest 421 484 34,000  Level FlightAware
12:21AM 38.6710 -82.8970 240° Southwest 417 480 34,000  Level FlightAware
12:21AM 38.6652 -82.9100 240° Southwest 418 481 34,000  Level FlightAware ADS-B
12:21AM 38.6353 -82.9735 239° Southwest 417 480 34,000  Level FlightAware ADS-B
12:22AM 38.6052 -83.0389 240° Southwest 415 478 34,000  Level FlightAware ADS-B
12:23AM 38.5590 -83.1380 239° Southwest 413 475 34,000  Level FlightAware
12:23AM 38.5240 -83.2120 239° Southwest 413 475 34,000  Level FlightAware
12:24AM 38.4900 -83.2830 239° Southwest 413 475 34,000  Level FlightAware
12:25AM 38.4570 -83.3540 239° Southwest 413 475 34,000  Level FlightAware
12:25AM 38.4040 -83.4660 239° Southwest 414 476 34,000  Level FlightAware
12:26AM 38.3430 -83.5960 239° Southwest 415 478 34,000 60 Level FlightAware
12:27AM 38.3020 -83.6820 239° Southwest 415 478 34,100 60 Climbing FlightAware
12:28AM 38.2600 -83.7660 238° Southwest 415 478 34,100 -120 Level FlightAware
12:29AM 38.2120 -83.8700 240° Southwest 408 470 34,000 -120 Descending FlightAware
12:29AM 38.1720 -83.9520 238° Southwest 406 467 34,000  Level FlightAware
12:30AM 38.1300 -84.0400 239° Southwest 407 468 34,000  Level FlightAware
12:31AM 38.0970 -84.1070 238° Southwest 407 468 34,000  Level FlightAware
12:31AM 38.0660 -84.1728 239° Southwest 410 472 34,000 60 Level FlightAware ADS-B
12:32AM 38.0329 -84.2402 238° Southwest 410 472 34,100 60 Climbing FlightAware ADS-B
12:32AM 38.0040 -84.3000 238° Southwest 411 473 34,100 -120 Level FlightAware
12:32AM 37.9806 -84.3490 239° Southwest 411 473 34,000  Descending FlightAware ADS-B
12:33AM 37.9469 -84.4186 238° Southwest 409 471 34,100  Climbing FlightAware ADS-B
12:34AM 37.8846 -84.5463 238° Southwest 407 468 34,000 -60 Descending FlightAware ADS-B
12:35AM 37.8420 -84.6320 238° Southwest 400 460 34,000  Level FlightAware
12:35AM 37.8255 -84.6663 239° Southwest 401 461 34,000  Level FlightAware ADS-B
12:36AM 37.7960 -84.7250 238° Southwest 407 468 34,000  Level FlightAware
12:36AM 37.7590 -84.8020 239° Southwest 406 467 34,000  Level FlightAware
12:37AM 37.7180 -84.8860 238° Southwest 400 460 34,000  Level FlightAware
12:38AM 37.6750 -84.9730 238° Southwest 395 455 34,000  Level FlightAware
12:38AM 37.6380 -85.0460 237° Southwest 391 450 34,000  Level FlightAware
12:39AM 37.5970 -85.1260 237° Southwest 391 450 34,000  Level FlightAware
12:40AM 37.5630 -85.1910 237° Southwest 391 450 34,000  Level FlightAware
12:40AM 37.5170 -85.2900 240° Southwest 387 445 34,000  Level FlightAware
12:41AM 37.4730 -85.3770 238° Southwest 383 441 34,000  Level FlightAware
12:42AM 37.4370 -85.4490 238° Southwest 384 442 34,000  Level FlightAware
12:42AM 37.4153 -85.4926 238° Southwest 384 442 34,000  Level FlightAware ADS-B
12:43AM 37.3847 -85.5526 237° Southwest 383 441 34,000  Level FlightAware ADS-B
12:43AM 37.3531 -85.6146 237° Southwest 384 442 34,000  Level FlightAware ADS-B
12:44AM 37.3111 -85.6958 237° Southwest 389 448 34,000  Level FlightAware ADS-B
12:44AM 37.2796 -85.7571 237° Southwest 395 455 34,000 60 Level FlightAware ADS-B
12:45AM 37.2498 -85.8173 238° Southwest 399 459 34,100  Climbing FlightAware ADS-B
12:46AM 37.2174 -85.8800 237° Southwest 400 460 34,000 -120 Descending FlightAware ADS-B
12:46AM 37.1875 -85.9403 238° Southwest 394 453 34,000  Level FlightAware ADS-B
12:47AM 37.1579 -85.9981 237° Southwest 394 453 34,000  Level FlightAware ADS-B
12:47AM 37.1284 -86.0559 237° Southwest 394 453 34,000  Level FlightAware ADS-B
12:48AM 37.0983 -86.1152 238° Southwest 393 452 34,000  Level FlightAware ADS-B
12:48AM 37.0668 -86.1765 237° Southwest 392 451 34,000  Level FlightAware ADS-B
12:49AM 37.0369 -86.2337 237° Southwest 391 450 34,000  Level FlightAware ADS-B
12:49AM 37.0070 -86.2926 238° Southwest 392 451 34,000  Level FlightAware ADS-B
12:50AM 36.9771 -86.3498 237° Southwest 391 450 34,000  Level FlightAware ADS-B
12:50AM 36.9463 -86.4088 237° Southwest 396 456 34,000  Level FlightAware ADS-B
12:50AM 36.9248 -86.4517 238° Southwest 404 465 34,000  Level FlightAware ADS-B
12:51AM 36.8970 -86.5158 242° Southwest 410 472 34,000  Level FlightAware ADS-B
12:52AM 36.8683 -86.5801 241° Southwest 412 474 34,000 60 Level FlightAware ADS-B
12:52AM 36.8400 -86.6451 241° Southwest 416 479 34,100 60 Climbing FlightAware ADS-B
12:53AM 36.7920 -86.7530 241° Southwest 419 482 34,100  Level FlightAware
12:54AM 36.7513 -86.8451 241° Southwest 421 484 34,100 -120 Level FlightAware ADS-B
12:54AM 36.7100 -86.9370 241° Southwest 425 489 34,000 -120 Descending FlightAware
12:55AM 36.6780 -87.0100 241° Southwest 425 489 34,000  Level FlightAware
12:56AM 36.6460 -87.0830 241° Southwest 425 489 34,000  Level FlightAware
12:56AM 36.5860 -87.2150 241° Southwest 430 495 34,000 60 Level FlightAware
12:57AM 36.5500 -87.2950 241° Southwest 428 493 34,100 60 Climbing FlightAware
12:58AM 36.5160 -87.3670 240° Southwest 428 493 34,100  Level FlightAware
12:59AM 36.4740 -87.4580 240° Southwest 428 493 34,100 -180 Level FlightAware
12:59AM 36.4300 -87.5620 242° Southwest 411 473 33,900 -180 Descending FlightAware
01:00AM 36.3970 -87.6320 240° Southwest 411 473 33,900  Level FlightAware
01:01AM 36.3650 -87.7010 240° Southwest 411 473 33,900  Level FlightAware
01:01AM 36.3250 -87.7880 240° Southwest 411 473 33,900  Level FlightAware
01:02AM 36.2920 -87.8580 240° Southwest 411 473 33,900  Level FlightAware
01:03AM 36.2600 -87.9270 240° Southwest 411 473 33,900  Level FlightAware
01:03AM 36.2280 -87.9970 240° Southwest 411 473 33,900  Level FlightAware
01:04AM 36.1950 -88.0660 239° Southwest 411 473 33,900  Level FlightAware
01:05AM 36.1550 -88.1530 240° Southwest 411 473 33,900  Level FlightAware
01:06AM 36.1220 -88.2220 239° Southwest 411 473 33,900  Level FlightAware
01:06AM 36.0900 -88.2910 240° Southwest 411 473 33,900  Level FlightAware
01:07AM 36.0580 -88.3600 240° Southwest 411 473 33,900  Level FlightAware
01:08AM 36.0250 -88.4300 240° Southwest 411 473 33,900  Level FlightAware
01:08AM 35.9930 -88.4990 240° Southwest 411 473 33,900 -3,960 Level FlightAware
01:09AM 35.8994 -88.7092 240° Southwest 409 471 29,200 -4,440 Descending Memphis Center
01:10AM 35.8467 -88.8231 240° Southwest 404 465 27,100 -2,100 Descending Memphis Center
01:11AM 35.7958 -88.9289 239° Southwest 383 441 25,100 -1,980 Descending Memphis Center
01:12AM 35.7469 -89.0319 240° Southwest 371 427 23,200 -1,920 Descending Memphis Center
01:13AM 35.6875 -89.1225 231° Southwest 357 411 21,300 -1,920 Descending Memphis Center
01:14AM 35.6217 -89.2128 228° Southwest 345 397 19,400 -1,860 Descending Memphis Center
01:15AM 35.5514 -89.3006 225° Southwest 357 411 17,600 -1,860 Descending Memphis Center
01:16AM 35.4917 -89.3803 227° Southwest 343 395 15,700 -1,440 Descending Memphis Center
01:17AM 35.4256 -89.4628 225° Southwest 332 382 14,800 -960 Descending Memphis Center
01:18AM 35.3633 -89.5397 225° Southwest 332 382 13,800 -900 Descending Memphis Center
01:19AM 35.3139 -89.6089 229° Southwest 295 339 13,100 -780 Descending Memphis Center
01:20AM 35.2619 -89.6731 225° Southwest 270 311 12,300 -780 Descending Memphis Center
01:21AM 35.2122 -89.7369 226° Southwest 270 311 11,600 -780 Descending Memphis Center
01:22AM 35.1625 -89.7983 225° Southwest 264 304 10,800 -1,020 Descending Memphis Center
01:23AM 35.1211 -89.8544 228° Southwest 241 277 9,600 -1,260 Descending Memphis Center
01:24AM 35.0586 -89.8675 190° South 215 247 8,300 -1,260 Descending Memphis Center
01:25AM 34.9939 -89.8653 178° South 225 259 7,100 -1,260 Descending Memphis Center
01:26AM 34.9292 -89.8683 182° South 235 270 5,800 -1,380 Descending Memphis Center
01:27AM 34.8644 -89.8661 178° South 235 270 4,400 -1,320 Descending Memphis Center
01:28AM 34.7997 -89.8639 178° South 235 270 3,200 -900 Descending Memphis Center
01:30AM 34.8333 -89.9333 301° West 171 197 2,000 -480 Descending KMEM
01:31AM 34.8667 -89.9667 321° Northwest 178 205 2,000  Level KMEM
01:32AM 34.9167 -89.9667 360° North 156 180 2,000 -240 Level KMEM
01:33AM 34.9667 -89.9667 360° North 159 183 1,600 -600 Descending KMEM
01:34AM 35.0000 -89.9667 360° North 145 167 900 -720 Descending KMEM
01:36AM 35.0333 -89.9667 345° North  Level FlightAware Approximate
01:43AM 35.0424 -89.9767 345° North  Level Estimated
01:44AM 35.0424 -89.9767 345° North  Level Estimated
01:45AM 35.0424 -89.9767 345° North  Level Estimated